Wetterdaten: Woche 17.12.12 - 23.12.12 (KW51)
Datum Zeit Temperatur Luftfeuchte Luftdruck Niederschlag Windrichtung Sonnenschein Solar Wind
17.12.2012 00:00 3,7 C 97 % 1008,1 hPa 2,2 l/m SW 0,00 h 0 W/m 10,7 km/h (2 Bft)
17.12.2012 01:00 3,9 C 97 % 1007,8 hPa 2,2 l/m W-SW 0,00 h 0 W/m 19,2 km/h (3 Bft)
17.12.2012 02:00 4,0 C 97 % 1008,1 hPa 1,2 l/m W-SW 0,00 h 0 W/m 16,6 km/h (3 Bft)
17.12.2012 03:00 3,8 C 98 % 1007,8 hPa 0,4 l/m W-SW 0,00 h 0 W/m 18,2 km/h (3 Bft)
17.12.2012 04:00 3,8 C 98 % 1007,6 hPa 0,0 l/m W-SW 0,00 h 0 W/m 17,4 km/h (3 Bft)
17.12.2012 05:00 3,8 C 98 % 1007,3 hPa 0,0 l/m W-SW 0,00 h 0 W/m 17,2 km/h (3 Bft)
17.12.2012 06:00 3,8 C 98 % 1007,6 hPa 0,0 l/m W-SW 0,00 h 0 W/m 19,7 km/h (3 Bft)
17.12.2012 07:00 4,1 C 98 % 1008,0 hPa 0,0 l/m W-SW 0,00 h 0 W/m 15,8 km/h (3 Bft)
17.12.2012 08:00 4,2 C 97 % 1008,5 hPa 0,0 l/m SW 0,00 h 6 W/m 17,8 km/h (3 Bft)
17.12.2012 09:00 4,3 C 96 % 1009,0 hPa 0,0 l/m W-SW 0,17 h 51 W/m 15,3 km/h (3 Bft)
17.12.2012 10:00 4,8 C 94 % 1009,4 hPa 0,0 l/m W-SW 0,08 h 104 W/m 23,2 km/h (4 Bft)
17.12.2012 11:00 5,3 C 92 % 1009,2 hPa 0,0 l/m SW 0,33 h 122 W/m 23,4 km/h (4 Bft)
17.12.2012 12:00 5,4 C 90 % 1008,9 hPa 0,0 l/m W-SW 0,00 h 118 W/m 20,2 km/h (4 Bft)
17.12.2012 13:00 5,6 C 89 % 1008,6 hPa 0,0 l/m W-SW 0,00 h 90 W/m 21,2 km/h (4 Bft)
17.12.2012 14:00 5,6 C 89 % 1008,4 hPa 0,0 l/m W-SW 0,17 h 85 W/m 17,8 km/h (3 Bft)
17.12.2012 15:00 5,4 C 90 % 1008,4 hPa 0,0 l/m SW 0,00 h 19 W/m 14,6 km/h (3 Bft)
17.12.2012 16:00 5,1 C 91 % 1008,4 hPa 0,0 l/m W-SW 0,00 h 6 W/m 16,5 km/h (3 Bft)
17.12.2012 17:00 5,1 C 91 % 1008,5 hPa 0,0 l/m W-SW 0,00 h 0 W/m 18,9 km/h (3 Bft)
17.12.2012 18:00 4,7 C 93 % 1008,6 hPa 0,2 l/m W-SW 0,00 h 0 W/m 16,6 km/h (3 Bft)
17.12.2012 19:00 4,5 C 93 % 1008,9 hPa 0,0 l/m W-SW 0,00 h 0 W/m 23,0 km/h (4 Bft)
17.12.2012 20:00 4,5 C 92 % 1008,9 hPa 0,0 l/m SW 0,00 h 0 W/m 20,5 km/h (4 Bft)
17.12.2012 21:00 4,5 C 92 % 1009,2 hPa 0,6 l/m SW 0,00 h 0 W/m 18,4 km/h (3 Bft)
17.12.2012 22:00 3,9 C 95 % 1009,4 hPa 1,0 l/m W-SW 0,00 h 0 W/m 16,0 km/h (3 Bft)
17.12.2012 23:00 3,5 C 95 % 1009,8 hPa 0,0 l/m W 0,00 h 0 W/m 17,3 km/h (3 Bft)
18.12.2012 00:00 3,0 C 96 % 1010,1 hPa 0,0 l/m W-SW 0,00 h 0 W/m 17,3 km/h (3 Bft)
18.12.2012 01:00 2,9 C 96 % 1010,3 hPa 0,0 l/m W-SW 0,00 h 0 W/m 18,9 km/h (3 Bft)
18.12.2012 02:00 3,0 C 96 % 1010,5 hPa 0,0 l/m W-SW 0,00 h 0 W/m 20,0 km/h (4 Bft)
18.12.2012 03:00 3,0 C 95 % 1010,7 hPa 0,0 l/m W-SW 0,00 h 0 W/m 18,6 km/h (3 Bft)
18.12.2012 04:00 2,7 C 94 % 1010,6 hPa 0,2 l/m W-SW 0,00 h 0 W/m 19,6 km/h (3 Bft)
18.12.2012 05:00 2,5 C 95 % 1011,0 hPa 0,0 l/m SW 0,00 h 0 W/m 12,8 km/h (3 Bft)
18.12.2012 06:00 2,7 C 95 % 1011,3 hPa 0,0 l/m W-SW 0,00 h 0 W/m 11,2 km/h (2 Bft)
18.12.2012 07:00 2,8 C 95 % 1012,1 hPa 0,0 l/m W-SW 0,00 h 0 W/m 12,4 km/h (3 Bft)
18.12.2012 08:00 2,7 C 95 % 1012,9 hPa 0,2 l/m W 0,00 h 6 W/m 13,3 km/h (3 Bft)
18.12.2012 09:00 2,4 C 96 % 1013,5 hPa 0,0 l/m W-SW 0,00 h 26 W/m 12,0 km/h (2 Bft)
18.12.2012 10:00 2,7 C 96 % 1013,7 hPa 0,2 l/m W-SW 0,00 h 73 W/m 15,8 km/h (3 Bft)
18.12.2012 11:00 3,3 C 95 % 1013,8 hPa 0,0 l/m W 0,42 h 165 W/m 13,8 km/h (3 Bft)
18.12.2012 12:00 4,0 C 92 % 1013,3 hPa 0,0 l/m W-SW 0,17 h 101 W/m 11,3 km/h (2 Bft)
18.12.2012 13:00 3,9 C 91 % 1013,2 hPa 0,0 l/m W-SW 0,00 h 74 W/m 6,7 km/h (2 Bft)
18.12.2012 14:00 4,2 C 89 % 1013,3 hPa 0,0 l/m N 0,00 h 66 W/m 3,3 km/h (1 Bft)
18.12.2012 15:00 4,1 C 89 % 1013,8 hPa 0,0 l/m N 0,00 h 10 W/m 1,5 km/h (1 Bft)
18.12.2012 16:00 3,5 C 90 % 1014,6 hPa 0,0 l/m W-SW 0,00 h 8 W/m 1,6 km/h (1 Bft)
18.12.2012 17:00 2,5 C 91 % 1015,3 hPa 0,0 l/m N 0,00 h 0 W/m 0,0 km/h (0 Bft)
18.12.2012 18:00 1,7 C 92 % 1015,9 hPa 0,0 l/m N 0,00 h 0 W/m 0,0 km/h (0 Bft)
18.12.2012 19:00 1,5 C 94 % 1016,8 hPa 0,0 l/m W-SW 0,00 h 0 W/m 1,9 km/h (1 Bft)
18.12.2012 20:00 2,2 C 96 % 1017,4 hPa 0,0 l/m N 0,00 h 0 W/m 2,4 km/h (1 Bft)
18.12.2012 21:00 2,3 C 96 % 1018,1 hPa 0,0 l/m W-SW 0,00 h 0 W/m 2,7 km/h (1 Bft)
18.12.2012 22:00 2,3 C 96 % 1018,6 hPa 0,2 l/m N 0,00 h 0 W/m 0,0 km/h (0 Bft)
18.12.2012 23:00 2,1 C 96 % 1019,2 hPa 0,2 l/m N 0,00 h 0 W/m 1,2 km/h (1 Bft)
19.12.2012 00:00 1,9 C 96 % 1019,9 hPa 0,0 l/m W-SW 0,00 h 0 W/m 2,9 km/h (1 Bft)
19.12.2012 01:00 1,7 C 97 % 1020,2 hPa 0,0 l/m W-SW 0,00 h 0 W/m 3,7 km/h (1 Bft)
19.12.2012 02:00 1,3 C 97 % 1020,5 hPa 0,0 l/m W-SW 0,00 h 0 W/m 3,6 km/h (1 Bft)
19.12.2012 03:00 1,3 C 97 % 1020,8 hPa 0,0 l/m W-SW 0,00 h 0 W/m 1,6 km/h (1 Bft)
19.12.2012 04:00 1,2 C 97 % 1021,0 hPa 0,0 l/m W-SW 0,00 h 0 W/m 1,5 km/h (1 Bft)
19.12.2012 05:00 1,2 C 97 % 1021,3 hPa 0,0 l/m W-SW 0,00 h 0 W/m 2,9 km/h (1 Bft)
19.12.2012 06:00 1,3 C 97 % 1021,8 hPa 0,0 l/m W-SW 0,00 h 0 W/m 1,9 km/h (1 Bft)
19.12.2012 07:00 1,3 C 97 % 1022,3 hPa 0,0 l/m N 0,00 h 0 W/m 0,8 km/h (0 Bft)
19.12.2012 08:00 1,3 C 97 % 1022,7 hPa 0,0 l/m N 0,00 h 7 W/m 0,7 km/h (0 Bft)
19.12.2012 09:00 1,4 C 98 % 1023,0 hPa 0,0 l/m W-SW 0,00 h 18 W/m 2,9 km/h (1 Bft)
19.12.2012 10:00 1,8 C 98 % 1023,3 hPa 0,0 l/m W-SW 0,00 h 39 W/m 4,0 km/h (1 Bft)
19.12.2012 11:00 2,4 C 98 % 1023,3 hPa 0,0 l/m W-SW 0,00 h 64 W/m 4,4 km/h (1 Bft)
19.12.2012 12:00 2,7 C 97 % 1023,1 hPa 0,0 l/m W-SW 0,00 h 57 W/m 3,3 km/h (1 Bft)
19.12.2012 13:00 2,9 C 95 % 1023,0 hPa 0,0 l/m W-SW 0,00 h 43 W/m 1,7 km/h (1 Bft)
19.12.2012 14:00 3,0 C 93 % 1022,7 hPa 0,0 l/m W-SW 0,00 h 35 W/m 4,0 km/h (1 Bft)
19.12.2012 15:00 3,2 C 92 % 1022,6 hPa 0,0 l/m N 0,00 h 15 W/m 1,3 km/h (1 Bft)
19.12.2012 16:00 3,2 C 92 % 1022,8 hPa 0,0 l/m W-SW 0,00 h 5 W/m 3,6 km/h (1 Bft)
19.12.2012 17:00 2,7 C 91 % 1022,8 hPa 0,0 l/m W-SW 0,00 h 0 W/m 1,7 km/h (1 Bft)
19.12.2012 18:00 1,4 C 90 % 1023,1 hPa 0,0 l/m N 0,00 h 0 W/m 1,9 km/h (1 Bft)
19.12.2012 19:00 1,0 C 93 % 1023,1 hPa 0,0 l/m N 0,00 h 0 W/m 2,0 km/h (1 Bft)
19.12.2012 20:00 0,9 C 94 % 1023,0 hPa 0,0 l/m N 0,00 h 0 W/m 3,2 km/h (1 Bft)
19.12.2012 21:00 0,2 C 94 % 1022,7 hPa 0,0 l/m W-SW 0,00 h 0 W/m 3,3 km/h (1 Bft)
19.12.2012 22:00 0,0 C 96 % 1022,6 hPa 0,0 l/m NO 0,00 h 0 W/m 6,0 km/h (2 Bft)
19.12.2012 23:00 0,0 C 97 % 1022,1 hPa 0,0 l/m O-NO 0,00 h 0 W/m 7,6 km/h (2 Bft)
20.12.2012 00:00 -0,0 C 97 % 1021,6 hPa 0,0 l/m O 0,00 h 0 W/m 7,8 km/h (2 Bft)
20.12.2012 01:00 -0,2 C 96 % 1021,0 hPa 0,0 l/m O-NO 0,00 h 0 W/m 8,0 km/h (2 Bft)
20.12.2012 02:00 -0,1 C 96 % 1020,4 hPa 0,0 l/m O-SO 0,00 h 0 W/m 9,0 km/h (2 Bft)
20.12.2012 03:00 -0,1 C 96 % 1019,6 hPa 0,0 l/m O 0,00 h 0 W/m 8,7 km/h (2 Bft)
20.12.2012 04:00 -0,2 C 95 % 1019,1 hPa 0,0 l/m O 0,00 h 0 W/m 9,8 km/h (2 Bft)
20.12.2012 05:00 -0,4 C 95 % 1018,7 hPa 0,0 l/m O 0,00 h 0 W/m 7,6 km/h (2 Bft)
20.12.2012 06:00 -0,7 C 94 % 1018,1 hPa 0,0 l/m O-NO 0,00 h 0 W/m 11,0 km/h (2 Bft)
20.12.2012 07:00 -0,8 C 93 % 1017,6 hPa 0,0 l/m O-SO 0,00 h 0 W/m 7,1 km/h (2 Bft)
20.12.2012 08:00 -1,1 C 93 % 1017,2 hPa 0,0 l/m O 0,00 h 12 W/m 9,5 km/h (2 Bft)
20.12.2012 09:00 -1,3 C 93 % 1016,8 hPa 0,0 l/m O-NO 0,00 h 33 W/m 11,2 km/h (2 Bft)
20.12.2012 10:00 -1,3 C 93 % 1016,7 hPa 0,0 l/m O 0,00 h 67 W/m 9,7 km/h (2 Bft)
20.12.2012 11:00 -1,1 C 92 % 1016,2 hPa 0,0 l/m O 0,00 h 96 W/m 10,6 km/h (2 Bft)
20.12.2012 12:00 -0,5 C 91 % 1015,4 hPa 0,0 l/m O 0,00 h 107 W/m 7,5 km/h (2 Bft)
20.12.2012 13:00 -0,1 C 90 % 1015,0 hPa 0,0 l/m O-NO 0,00 h 73 W/m 6,0 km/h (2 Bft)
20.12.2012 14:00 -0,0 C 90 % 1014,7 hPa 0,0 l/m N 0,00 h 43 W/m 2,4 km/h (1 Bft)
20.12.2012 15:00 0,2 C 90 % 1014,4 hPa 0,0 l/m O-NO 0,00 h 16 W/m 4,0 km/h (1 Bft)
20.12.2012 16:00 0,1 C 90 % 1014,0 hPa 0,0 l/m O 0,00 h 6 W/m 5,2 km/h (1 Bft)
20.12.2012 17:00 -0,0 C 91 % 1013,2 hPa 0,0 l/m O-SO 0,00 h 0 W/m 3,1 km/h (1 Bft)
20.12.2012 18:00 -0,2 C 93 % 1012,6 hPa 0,0 l/m SO 0,00 h 0 W/m 2,4 km/h (1 Bft)
20.12.2012 19:00 -0,3 C 94 % 1012,4 hPa 0,0 l/m N 0,00 h 0 W/m 0,8 km/h (0 Bft)
20.12.2012 20:00 -0,2 C 95 % 1012,4 hPa 0,4 l/m N 0,00 h 0 W/m 1,3 km/h (1 Bft)
20.12.2012 21:00 -0,1 C 95 % 1012,2 hPa 1,0 l/m N 0,00 h 0 W/m 3,7 km/h (1 Bft)
20.12.2012 22:00 -0,2 C 96 % 1011,9 hPa 0,6 l/m S-SW 0,00 h 0 W/m 9,5 km/h (2 Bft)
20.12.2012 23:00 -0,0 C 97 % 1011,8 hPa 1,0 l/m S-SW 0,00 h 0 W/m 10,0 km/h (2 Bft)
21.12.2012 00:00 0,3 C 97 % 1011,6 hPa 2,8 l/m SW 0,00 h 0 W/m 9,5 km/h (2 Bft)
21.12.2012 01:00 0,6 C 98 % 1011,2 hPa 1,0 l/m SW 0,00 h 0 W/m 10,1 km/h (2 Bft)
21.12.2012 02:00 0,9 C 98 % 1011,3 hPa 0,4 l/m S-SW 0,00 h 0 W/m 10,2 km/h (2 Bft)
21.12.2012 03:00 1,5 C 98 % 1011,3 hPa 0,0 l/m SW 0,00 h 0 W/m 14,9 km/h (3 Bft)
21.12.2012 04:00 2,2 C 98 % 1011,3 hPa 0,0 l/m SW 0,00 h 0 W/m 14,2 km/h (3 Bft)
21.12.2012 05:00 2,2 C 98 % 1011,1 hPa 0,0 l/m SW 0,00 h 0 W/m 15,8 km/h (3 Bft)
21.12.2012 06:00 2,8 C 99 % 1010,9 hPa 0,0 l/m W-SW 0,00 h 0 W/m 20,9 km/h (4 Bft)
21.12.2012 07:00 3,1 C 99 % 1011,1 hPa 0,0 l/m SW 0,00 h 0 W/m 17,3 km/h (3 Bft)
21.12.2012 08:00 2,9 C 98 % 1011,4 hPa 0,0 l/m SW 0,00 h 9 W/m 7,4 km/h (2 Bft)
21.12.2012 09:00 2,9 C 99 % 1011,7 hPa 0,0 l/m SW 0,00 h 24 W/m 10,6 km/h (2 Bft)
21.12.2012 10:00 3,8 C 99 % 1012,5 hPa 0,0 l/m W-SW 0,00 h 49 W/m 13,2 km/h (3 Bft)
21.12.2012 11:00 4,5 C 97 % 1012,7 hPa 0,0 l/m SW 0,00 h 69 W/m 15,2 km/h (3 Bft)
21.12.2012 12:00 5,2 C 95 % 1012,7 hPa 0,0 l/m SW 0,00 h 113 W/m 12,8 km/h (3 Bft)
21.12.2012 13:00 5,7 C 93 % 1012,5 hPa 0,0 l/m W-SW 0,08 h 136 W/m 17,2 km/h (3 Bft)
21.12.2012 14:00 5,8 C 91 % 1012,7 hPa 0,0 l/m W-SW 0,00 h 80 W/m 13,3 km/h (3 Bft)
21.12.2012 15:00 5,6 C 91 % 1013,0 hPa 0,0 l/m SW 0,00 h 23 W/m 9,1 km/h (2 Bft)
21.12.2012 16:00 5,1 C 93 % 1013,5 hPa 0,0 l/m SW 0,00 h 8 W/m 7,2 km/h (2 Bft)
21.12.2012 17:00 4,7 C 94 % 1014,0 hPa 0,0 l/m SW 0,00 h 0 W/m 7,2 km/h (2 Bft)
21.12.2012 18:00 4,7 C 94 % 1014,5 hPa 0,0 l/m SW 0,00 h 0 W/m 9,5 km/h (2 Bft)
21.12.2012 19:00 4,8 C 92 % 1015,3 hPa 0,0 l/m W-SW 0,00 h 0 W/m 4,8 km/h (1 Bft)
21.12.2012 20:00 4,3 C 93 % 1015,9 hPa 0,0 l/m W-SW 0,00 h 0 W/m 5,7 km/h (1 Bft)
21.12.2012 21:00 4,2 C 95 % 1016,3 hPa 0,2 l/m W-SW 0,00 h 0 W/m 8,2 km/h (2 Bft)
21.12.2012 22:00 4,3 C 95 % 1016,8 hPa 0,0 l/m W-SW 0,00 h 0 W/m 9,0 km/h (2 Bft)
21.12.2012 23:00 4,2 C 96 % 1017,4 hPa 0,0 l/m W-SW 0,00 h 0 W/m 6,8 km/h (2 Bft)
22.12.2012 00:00 3,8 C 96 % 1017,9 hPa 0,0 l/m SW 0,00 h 0 W/m 6,9 km/h (2 Bft)
22.12.2012 01:00 3,7 C 96 % 1018,3 hPa 0,0 l/m SW 0,00 h 0 W/m 6,7 km/h (2 Bft)
22.12.2012 02:00 3,3 C 96 % 1019,2 hPa 0,0 l/m SW 0,00 h 0 W/m 6,5 km/h (2 Bft)
22.12.2012 03:00 3,4 C 97 % 1019,7 hPa 0,0 l/m W 0,00 h 0 W/m 6,4 km/h (2 Bft)
22.12.2012 04:00 2,5 C 96 % 1019,7 hPa 0,0 l/m W-SW 0,00 h 0 W/m 7,6 km/h (2 Bft)
22.12.2012 05:00 2,6 C 97 % 1020,0 hPa 0,0 l/m W-SW 0,00 h 0 W/m 12,4 km/h (3 Bft)
22.12.2012 06:00 2,6 C 97 % 1020,0 hPa 0,0 l/m W-SW 0,00 h 0 W/m 3,5 km/h (1 Bft)
22.12.2012 07:00 2,5 C 98 % 1020,3 hPa 0,2 l/m W-SW 0,00 h 0 W/m 4,7 km/h (1 Bft)
22.12.2012 08:00 2,8 C 98 % 1020,4 hPa 0,0 l/m SW 0,17 h 14 W/m 7,9 km/h (2 Bft)
22.12.2012 09:00 3,4 C 98 % 1020,4 hPa 0,0 l/m S-SW 0,00 h 34 W/m 9,4 km/h (2 Bft)
22.12.2012 10:00 3,9 C 98 % 1020,7 hPa 0,0 l/m W-SW 0,25 h 94 W/m 11,3 km/h (2 Bft)
22.12.2012 11:00 4,9 C 93 % 1020,0 hPa 0,0 l/m W-SW 0,42 h 162 W/m 10,2 km/h (2 Bft)
22.12.2012 12:00 5,5 C 89 % 1019,3 hPa 0,0 l/m SW 0,17 h 156 W/m 11,0 km/h (2 Bft)
22.12.2012 13:00 5,6 C 88 % 1018,1 hPa 0,0 l/m W-SW 0,00 h 84 W/m 9,5 km/h (2 Bft)
22.12.2012 14:00 5,3 C 89 % 1017,2 hPa 0,0 l/m SW 0,00 h 43 W/m 9,0 km/h (2 Bft)
22.12.2012 15:00 5,0 C 90 % 1017,0 hPa 0,0 l/m SW 0,00 h 18 W/m 6,0 km/h (2 Bft)
22.12.2012 16:00 4,6 C 93 % 1016,4 hPa 0,0 l/m SW 0,00 h 5 W/m 6,3 km/h (2 Bft)
22.12.2012 17:00 4,2 C 94 % 1016,1 hPa 0,2 l/m SW 0,00 h 0 W/m 9,7 km/h (2 Bft)
22.12.2012 18:00 3,7 C 95 % 1015,4 hPa 1,4 l/m W-SW 0,00 h 0 W/m 16,8 km/h (3 Bft)
22.12.2012 19:00 3,0 C 95 % 1014,8 hPa 1,6 l/m SW 0,00 h 0 W/m 18,9 km/h (3 Bft)
22.12.2012 20:00 2,3 C 96 % 1014,2 hPa 2,6 l/m SW 0,00 h 0 W/m 13,7 km/h (3 Bft)
22.12.2012 21:00 2,4 C 97 % 1013,6 hPa 1,0 l/m SW 0,00 h 0 W/m 15,6 km/h (3 Bft)
22.12.2012 22:00 3,0 C 98 % 1013,1 hPa 1,0 l/m SW 0,00 h 0 W/m 21,7 km/h (4 Bft)
22.12.2012 23:00 3,5 C 98 % 1012,7 hPa 1,6 l/m W-SW 0,00 h 0 W/m 22,5 km/h (4 Bft)
23.12.2012 00:00 4,4 C 99 % 1012,0 hPa 0,8 l/m W-SW 0,00 h 0 W/m 26,4 km/h (4 Bft)
23.12.2012 01:00 5,6 C 99 % 1011,8 hPa 0,8 l/m SW 0,00 h 0 W/m 33,1 km/h (5 Bft)
23.12.2012 02:00 6,5 C 98 % 1012,3 hPa 0,6 l/m W-SW 0,00 h 0 W/m 34,2 km/h (5 Bft)
23.12.2012 03:00 7,2 C 98 % 1012,5 hPa 0,6 l/m W-SW 0,00 h 0 W/m 34,2 km/h (5 Bft)
23.12.2012 04:00 7,6 C 98 % 1013,0 hPa 0,0 l/m W-SW 0,00 h 0 W/m 31,9 km/h (5 Bft)
23.12.2012 05:00 8,0 C 98 % 1013,2 hPa 0,0 l/m W-SW 0,00 h 0 W/m 31,3 km/h (5 Bft)
23.12.2012 06:00 8,3 C 98 % 1013,6 hPa 0,0 l/m W-SW 0,00 h 0 W/m 31,8 km/h (5 Bft)
23.12.2012 07:00 8,6 C 97 % 1013,9 hPa 0,2 l/m W-SW 0,00 h 0 W/m 33,3 km/h (5 Bft)
23.12.2012 08:00 9,0 C 95 % 1014,4 hPa 0,0 l/m W-SW 0,00 h 9 W/m 30,2 km/h (5 Bft)
23.12.2012 09:00 9,4 C 93 % 1014,7 hPa 0,0 l/m W-SW 0,00 h 22 W/m 36,9 km/h (5 Bft)
23.12.2012 10:00 9,6 C 91 % 1015,1 hPa 0,0 l/m W 0,00 h 16 W/m 27,6 km/h (4 Bft)
23.12.2012 11:00 10,2 C 87 % 1015,3 hPa 0,0 l/m W 0,00 h 40 W/m 27,2 km/h (4 Bft)
23.12.2012 12:00 10,8 C 83 % 1014,8 hPa 0,0 l/m W-SW 0,00 h 53 W/m 31,0 km/h (5 Bft)
23.12.2012 13:00 11,1 C 81 % 1014,6 hPa 0,0 l/m W-SW 0,00 h 36 W/m 28,7 km/h (4 Bft)
23.12.2012 14:00 10,9 C 81 % 1014,1 hPa 0,0 l/m W-SW 0,00 h 27 W/m 25,3 km/h (4 Bft)
23.12.2012 15:00 10,5 C 82 % 1014,2 hPa 0,0 l/m W-SW 0,00 h 15 W/m 20,4 km/h (4 Bft)
23.12.2012 16:00 10,5 C 81 % 1014,5 hPa 0,0 l/m W-SW 0,00 h 7 W/m 22,5 km/h (4 Bft)
23.12.2012 17:00 10,5 C 81 % 1014,5 hPa 0,0 l/m SW 0,00 h 0 W/m 24,5 km/h (4 Bft)
23.12.2012 18:00 10,7 C 81 % 1014,7 hPa 0,0 l/m W-SW 0,00 h 0 W/m 29,9 km/h (5 Bft)
23.12.2012 19:00 10,8 C 80 % 1015,0 hPa 0,0 l/m W 0,00 h 0 W/m 29,8 km/h (5 Bft)
23.12.2012 20:00 10,8 C 80 % 1015,4 hPa 0,0 l/m W-SW 0,00 h 0 W/m 27,5 km/h (4 Bft)
23.12.2012 21:00 10,4 C 80 % 1015,4 hPa 0,0 l/m W-SW 0,00 h 0 W/m 20,0 km/h (4 Bft)
23.12.2012 22:00 9,7 C 81 % 1015,2 hPa 0,0 l/m SW 0,00 h 0 W/m 21,0 km/h (4 Bft)
23.12.2012 23:00 8,7 C 84 % 1015,3 hPa 0,0 l/m SW 0,00 h 0 W/m 19,2 km/h (3 Bft)
Min-Datum _ 20.12.12 23.12.12 17.12.12 - - - - 18.12.12
_ Min-Zeit 10:45 22:25 05:25 - - - - 14:40
Minimum _ -1,4 C 79 % 1007,2 hPa - - - - 0,0 km/h (0 Bft)
Max-Datum _ 23.12.12 20.12.12 19.12.12 21.12.12 - 17.12.12 18.12.12 23.12.12
_ Max-Zeit 13:25 06:20 11:05 00:10 - 09:45 11:50 09:40
Maximum _ 11,2 C 100 % 1023,5 hPa 2,8 l/m - 0,08 h 397 W/m 45,1 km/h
W-SW (6 Bft)
Durchschnitt _ 3,6 C 94 % 1015,0 hPa #28,8 l/m W-SW #2:25 h 51 W/m 12,5 km/h (3 Bft)